Time;durP1;ratioP1;P1;durP2;ratioP2;P2;SDS_P1;SDS_P2;PMS_P1;PMS_P2;Temp;Humidity;BMP_temperature;BMP_pressure;BME280_temperature;BME280_humidity;BME280_pressure;Samples;Min_cycle;Max_cycle;Signal;HPM_P1;HPM_P2
2022/07/28 00:02:04;;;;;;;1.30;1.20;;;14.50;57.70;;;;;;604734;238;26587;-66
2022/07/28 00:04:31;;;;;;;1.42;1.20;;;14.50;57.80;;;;;;604672;238;26788;-66
2022/07/28 00:06:59;;;;;;;1.52;1.02;;;14.50;58.00;;;;;;604652;238;26589;-66
2022/07/28 00:09:26;;;;;;;3.00;1.30;;;14.40;58.10;;;;;;605582;235;26886;-66
2022/07/28 00:11:53;;;;;;;2.60;1.30;;;14.40;58.20;;;;;;606017;236;26590;-66
2022/07/28 00:14:20;;;;;;;1.48;1.20;;;14.40;58.20;;;;;;605719;237;27341;-66
2022/07/28 00:16:47;;;;;;;1.40;1.30;;;14.40;58.40;;;;;;605578;237;26586;-66
2022/07/28 00:19:15;;;;;;;1.65;1.40;;;14.30;58.50;;;;;;605387;237;26884;-66
2022/07/28 00:21:42;;;;;;;1.12;1.02;;;14.30;58.60;;;;;;605332;237;26578;-66
2022/07/28 00:24:09;;;;;;;1.83;1.10;;;14.30;58.80;;;;;;605308;237;26860;-66
2022/07/28 00:26:37;;;;;;;1.20;1.10;;;14.20;59.10;;;;;;605236;237;26568;-66
2022/07/28 00:29:05;;;;;;;1.05;1.02;;;14.20;59.50;;;;;;605003;238;26602;-66
2022/07/28 00:31:33;;;;;;;1.30;1.05;;;14.10;59.50;;;;;;604986;237;26590;-67
2022/07/28 00:34:01;;;;;;;1.83;1.10;;;14.10;59.80;;;;;;604989;237;26593;-67
2022/07/28 00:36:28;;;;;;;1.77;1.30;;;14.10;59.80;;;;;;604978;238;26637;-67
2022/07/28 00:38:55;;;;;;;1.42;1.20;;;14.10;59.90;;;;;;604988;238;26584;-67
2022/07/28 00:41:24;;;;;;;1.83;1.30;;;14.00;60.20;;;;;;604984;237;26879;-67
2022/07/28 00:43:51;;;;;;;1.25;1.17;;;14.00;60.20;;;;;;604968;238;26826;-67
2022/07/28 00:46:18;;;;;;;1.95;1.12;;;14.00;60.60;;;;;;604793;235;26576;-67
2022/07/28 00:48:46;;;;;;;1.77;1.00;;;13.90;60.70;;;;;;604792;237;26908;-67
2022/07/28 00:51:15;;;;;;;1.58;1.27;;;13.90;61.30;;;;;;604669;238;26587;-67
2022/07/28 00:53:42;;;;;;;1.12;1.10;;;13.90;61.30;;;;;;604703;238;26613;-67
2022/07/28 00:56:09;;;;;;;1.35;1.15;;;13.90;61.70;;;;;;604765;238;26804;-67
2022/07/28 00:58:36;;;;;;;0.90;0.90;;;13.80;61.90;;;;;;604761;238;26583;-67
2022/07/28 01:01:06;;;;;;;1.65;1.17;;;13.80;62.40;;;;;;604727;237;27205;-67
2022/07/28 01:03:32;;;;;;;1.35;1.25;;;13.70;62.90;;;;;;604750;237;26627;-67
2022/07/28 01:06:15;;;;;;;1.75;1.17;;;13.70;63.50;;;;;;604748;237;26847;-67
2022/07/28 01:08:44;;;;;;;1.70;1.17;;;13.70;63.80;;;;;;604186;235;26575;-67
2022/07/28 01:11:26;;;;;;;1.05;1.05;;;13.60;64.10;;;;;;604128;238;26809;-67
2022/07/28 01:14:10;;;;;;;1.40;1.10;;;13.60;64.80;;;;;;604968;238;26595;-67
2022/07/28 01:16:37;;;;;;;2.42;1.62;;;13.60;65.50;;;;;;604636;238;26798;-67
2022/07/28 01:19:05;;;;;;;2.25;1.33;;;13.50;65.80;;;;;;604666;238;26554;-67
2022/07/28 01:21:32;;;;;;;1.90;1.20;;;13.40;66.60;;;;;;605640;235;27073;-67
2022/07/28 01:24:04;;;;;;;1.65;1.20;;;13.40;67.30;;;;;;606254;237;26633;-67
2022/07/28 01:26:36;;;;;;;1.48;0.95;;;13.50;67.50;;;;;;605731;237;26595;-67
2022/07/28 01:29:09;;;;;;;3.15;1.50;;;13.40;67.80;;;;;;605278;237;26629;-67
2022/07/28 01:31:37;;;;;;;1.23;1.12;;;13.40;68.50;;;;;;605090;238;26999;-67
2022/07/28 01:34:05;;;;;;;1.67;1.55;;;13.40;68.70;;;;;;605169;238;26615;-67
2022/07/28 01:36:33;;;;;;;1.30;1.00;;;13.30;70.00;;;;;;605147;238;26642;-66
2022/07/28 01:39:00;;;;;;;1.80;1.10;;;13.30;69.70;;;;;;604694;238;26629;-66
2022/07/28 01:41:27;;;;;;;1.50;1.20;;;13.30;71.00;;;;;;604894;238;26589;-66
2022/07/28 01:43:55;;;;;;;1.73;1.15;;;13.30;70.90;;;;;;604952;237;26950;-66
2022/07/28 01:46:22;;;;;;;2.12;1.02;;;13.20;71.40;;;;;;604659;238;26582;-67
2022/07/28 01:48:49;;;;;;;1.05;0.95;;;13.20;72.10;;;;;;605006;237;26827;-67
2022/07/28 01:51:16;;;;;;;1.70;1.30;;;13.20;72.50;;;;;;604930;238;26559;-66
2022/07/28 01:53:43;;;;;;;1.35;1.00;;;13.20;73.00;;;;;;604983;237;26881;-66
2022/07/28 01:56:11;;;;;;;1.10;1.10;;;13.20;73.90;;;;;;604875;237;26582;-66
2022/07/28 01:58:38;;;;;;;2.60;1.20;;;13.20;74.10;;;;;;604572;238;26813;-66
2022/07/28 02:01:05;;;;;;;1.98;1.23;;;13.10;74.50;;;;;;604672;237;26571;-66
2022/07/28 02:03:33;;;;;;;1.70;1.23;;;13.10;75.20;;;;;;604675;237;26610;-66
2022/07/28 02:06:01;;;;;;;2.55;1.35;;;13.20;75.70;;;;;;604638;237;26590;-66
2022/07/28 02:08:28;;;;;;;2.67;1.25;;;13.30;75.30;;;;;;604467;238;26665;-66
2022/07/28 02:13:29;;;;;;;1.48;1.12;;;13.30;75.00;;;;;;604610;237;26851;-66
2022/07/28 02:15:57;;;;;;;1.58;1.17;;;13.20;75.10;;;;;;604726;237;26599;-66
2022/07/28 02:18:24;;;;;;;1.40;1.30;;;13.20;75.20;;;;;;604781;238;26583;-66
2022/07/28 02:20:52;;;;;;;1.55;1.08;;;13.20;75.30;;;;;;604712;235;26606;-66
2022/07/28 02:23:19;;;;;;;1.65;1.08;;;13.10;75.80;;;;;;604743;237;26591;-66
2022/07/28 02:25:46;;;;;;;1.30;1.02;;;13.10;75.40;;;;;;604615;238;26587;-66
2022/07/28 02:28:14;;;;;;;3.15;1.27;;;13.10;74.90;;;;;;604765;237;27213;-66
2022/07/28 02:30:43;;;;;;;0.90;0.90;;;13.10;74.90;;;;;;605035;237;26814;-67
2022/07/28 02:33:11;;;;;;;0.93;0.90;;;13.10;74.80;;;;;;606026;235;26585;-67
2022/07/28 02:35:39;;;;;;;1.67;1.20;;;13.00;75.20;;;;;;606265;237;26619;-67
2022/07/28 02:38:06;;;;;;;1.30;1.20;;;13.00;75.10;;;;;;605558;237;26797;-67
2022/07/28 02:40:34;;;;;;;1.17;1.12;;;13.00;75.30;;;;;;605903;237;26559;-67
2022/07/28 02:43:01;;;;;;;1.30;1.10;;;13.00;75.50;;;;;;605624;237;26635;-67
2022/07/28 02:45:29;;;;;;;2.62;1.37;;;12.90;75.80;;;;;;605662;237;26924;-67
2022/07/28 02:47:56;;;;;;;1.17;1.08;;;12.90;76.10;;;;;;605353;238;26862;-67
2022/07/28 02:50:23;;;;;;;1.87;0.90;;;12.90;76.50;;;;;;604913;238;26638;-67
2022/07/28 02:52:50;;;;;;;2.22;1.23;;;12.80;76.80;;;;;;604892;238;26623;-67
2022/07/28 02:55:18;;;;;;;2.47;1.40;;;12.80;77.60;;;;;;604884;238;26558;-67
2022/07/28 02:57:46;;;;;;;2.70;1.17;;;12.80;78.00;;;;;;605050;238;26573;-67
2022/07/28 03:00:14;;;;;;;1.50;1.20;;;12.70;77.80;;;;;;604887;238;26594;-67
2022/07/28 03:02:45;;;;;;;1.85;1.12;;;12.80;78.40;;;;;;604740;238;26613;-67
2022/07/28 03:05:08;;;;;;;2.05;1.30;;;12.80;78.60;;;;;;604502;238;26838;-67
2022/07/28 03:07:36;;;;;;;1.85;1.00;;;12.70;78.90;;;;;;604819;238;26577;-67
2022/07/28 03:10:04;;;;;;;1.48;1.10;;;12.70;79.40;;;;;;604644;238;26622;-67
2022/07/28 03:12:31;;;;;;;1.37;1.00;;;12.70;79.40;;;;;;604647;237;26846;-67
2022/07/28 03:14:58;;;;;;;1.23;1.10;;;12.80;80.50;;;;;;604710;238;26560;-67
2022/07/28 03:17:26;;;;;;;1.27;1.00;;;12.70;80.70;;;;;;604715;238;26817;-67
2022/07/28 03:19:53;;;;;;;1.87;1.27;;;12.70;80.30;;;;;;604748;238;26559;-67
2022/07/28 03:22:20;;;;;;;1.92;1.17;;;12.70;80.40;;;;;;604760;237;26843;-67
2022/07/28 03:24:47;;;;;;;3.50;1.10;;;12.70;81.10;;;;;;604741;237;26590;-66
2022/07/28 03:27:21;;;;;;;2.00;1.35;;;12.70;82.20;;;;;;604521;238;26864;-67
2022/07/28 03:29:57;;;;;;;1.33;0.90;;;12.60;81.50;;;;;;604603;238;26607;-67
2022/07/28 03:32:24;;;;;;;1.70;1.05;;;12.70;81.80;;;;;;604600;238;26876;-67
2022/07/28 03:34:52;;;;;;;1.65;1.17;;;12.70;82.00;;;;;;604635;238;26609;-67
2022/07/28 03:37:20;;;;;;;1.30;1.20;;;12.70;82.10;;;;;;604747;237;26833;-67
2022/07/28 03:39:47;;;;;;;1.05;0.95;;;12.70;82.40;;;;;;604443;238;26593;-67
2022/07/28 03:42:18;;;;;;;1.20;1.00;;;12.70;82.70;;;;;;604966;238;26589;-67
2022/07/28 03:44:45;;;;;;;1.85;1.00;;;12.70;83.60;;;;;;606209;235;26565;-67
2022/07/28 03:47:13;;;;;;;3.08;1.50;;;12.70;83.50;;;;;;605938;236;26858;-67
2022/07/28 03:49:40;;;;;;;3.03;1.17;;;12.70;84.10;;;;;;605561;237;26638;-66
2022/07/28 03:52:07;;;;;;;1.83;1.10;;;12.80;83.50;;;;;;605451;237;26873;-66
2022/07/28 03:54:34;;;;;;;2.72;1.40;;;12.80;83.30;;;;;;605194;237;26667;-66
2022/07/28 03:57:02;;;;;;;1.80;0.95;;;12.90;83.50;;;;;;605348;235;26789;-66
2022/07/28 03:59:29;;;;;;;2.65;1.20;;;12.90;83.60;;;;;;605287;237;26821;-66
2022/07/28 04:01:56;;;;;;;2.30;1.12;;;12.90;83.30;;;;;;605168;237;26630;-66
2022/07/28 04:04:23;;;;;;;1.25;1.15;;;12.90;83.20;;;;;;605011;238;26827;-66
2022/07/28 04:06:51;;;;;;;1.73;1.30;;;13.00;83.70;;;;;;605018;238;26669;-66
2022/07/28 04:09:19;;;;;;;3.12;1.40;;;13.00;83.60;;;;;;604969;237;26562;-67
2022/07/28 04:11:47;;;;;;;2.08;1.25;;;13.00;83.90;;;;;;604990;237;26578;-66
2022/07/28 04:14:16;;;;;;;1.55;1.00;;;13.00;83.70;;;;;;605028;237;26613;-66
2022/07/28 04:16:42;;;;;;;1.20;0.98;;;13.00;83.70;;;;;;604962;237;26597;-66
2022/07/28 04:19:10;;;;;;;1.12;1.05;;;13.10;83.70;;;;;;604946;238;26589;-66
2022/07/28 04:21:37;;;;;;;2.75;1.40;;;13.10;83.50;;;;;;604657;238;26905;-66
2022/07/28 04:24:05;;;;;;;1.70;1.33;;;13.20;83.50;;;;;;604716;237;26611;-66
2022/07/28 04:26:32;;;;;;;1.62;1.33;;;13.20;83.60;;;;;;604677;238;26575;-66
2022/07/28 04:28:59;;;;;;;1.33;1.17;;;13.30;83.30;;;;;;604702;238;26824;-66
2022/07/28 04:31:27;;;;;;;1.67;1.10;;;13.30;83.20;;;;;;604749;237;26586;-67
2022/07/28 04:33:54;;;;;;;2.65;1.20;;;13.40;83.30;;;;;;604698;237;26853;-67
2022/07/28 04:36:21;;;;;;;2.22;1.60;;;13.40;83.40;;;;;;604717;238;26591;-66
2022/07/28 04:38:48;;;;;;;2.05;1.40;;;13.50;83.50;;;;;;604746;237;26825;-66
2022/07/28 04:41:15;;;;;;;2.70;1.40;;;13.60;83.30;;;;;;604565;238;26592;-66
2022/07/28 04:43:44;;;;;;;0.98;0.98;;;13.60;83.20;;;;;;604681;237;26868;-66
2022/07/28 04:46:10;;;;;;;1.62;1.17;;;13.80;82.60;;;;;;604643;238;26587;-66
2022/07/28 04:48:38;;;;;;;2.22;1.30;;;13.80;82.30;;;;;;604732;237;26590;-66
2022/07/28 04:51:06;;;;;;;2.03;1.15;;;13.90;81.60;;;;;;604696;237;26596;-66
2022/07/28 04:53:34;;;;;;;1.58;1.27;;;14.00;81.70;;;;;;604741;237;26609;-66
2022/07/28 04:56:02;;;;;;;2.05;1.45;;;13.90;81.60;;;;;;605725;235;26657;-67
2022/07/28 04:58:29;;;;;;;3.60;1.20;;;14.00;81.50;;;;;;605960;237;26586;-67
2022/07/28 05:00:56;;;;;;;2.15;1.30;;;14.10;81.30;;;;;;605636;237;26863;-67
2022/07/28 05:03:23;;;;;;;1.48;1.05;;;14.20;81.10;;;;;;605609;237;26644;-66
2022/07/28 05:05:50;;;;;;;2.10;1.20;;;14.30;81.10;;;;;;605381;237;26832;-66
2022/07/28 05:08:18;;;;;;;1.05;1.05;;;14.40;80.60;;;;;;605262;237;26669;-67
2022/07/28 05:10:45;;;;;;;2.05;1.20;;;14.50;80.30;;;;;;605269;238;26853;-66
2022/07/28 05:13:12;;;;;;;1.27;1.20;;;14.60;79.80;;;;;;605254;237;26605;-66
2022/07/28 05:15:39;;;;;;;2.30;1.30;;;14.60;79.80;;;;;;605019;237;26882;-66
2022/07/28 05:18:06;;;;;;;2.25;1.23;;;14.70;79.60;;;;;;605020;238;26593;-66
2022/07/28 05:20:34;;;;;;;1.37;1.27;;;14.70;79.40;;;;;;605019;238;26554;-66
2022/07/28 05:23:02;;;;;;;1.58;1.05;;;14.80;78.70;;;;;;604916;238;26613;-66
2022/07/28 05:25:29;;;;;;;1.52;1.23;;;14.90;78.70;;;;;;604901;238;26620;-66
2022/07/28 05:27:57;;;;;;;1.73;1.30;;;15.10;78.10;;;;;;605076;238;26629;-66
2022/07/28 05:30:25;;;;;;;2.70;1.40;;;15.00;77.60;;;;;;605016;238;26578;-67
2022/07/28 05:32:53;;;;;;;1.40;1.20;;;15.00;77.60;;;;;;604732;238;26633;-67
2022/07/28 05:35:20;;;;;;;1.50;1.40;;;15.10;77.90;;;;;;604738;237;26810;-67
2022/07/28 05:37:48;;;;;;;1.52;1.10;;;15.30;77.00;;;;;;604735;237;26590;-67
2022/07/28 05:40:17;;;;;;;2.83;1.60;;;15.40;76.30;;;;;;604732;237;26583;-67
2022/07/28 05:42:46;;;;;;;2.42;1.50;;;15.50;76.40;;;;;;604642;238;26595;-67
2022/07/28 05:45:11;;;;;;;2.28;1.50;;;15.50;76.40;;;;;;604546;238;26586;-67
2022/07/28 05:47:41;;;;;;;3.00;1.42;;;15.60;75.40;;;;;;604711;237;26823;-66
2022/07/28 05:50:09;;;;;;;2.35;1.37;;;15.80;74.40;;;;;;604477;238;26575;-67
2022/07/28 05:52:36;;;;;;;1.62;1.10;;;15.80;74.40;;;;;;604488;237;26609;-66
2022/07/28 05:55:05;;;;;;;3.67;1.60;;;15.90;73.90;;;;;;604758;237;26586;-67
2022/07/28 05:57:32;;;;;;;1.52;1.30;;;16.00;73.20;;;;;;604766;237;26592;-66
2022/07/28 05:59:59;;;;;;;2.17;1.27;;;16.10;72.60;;;;;;604700;238;26833;-67
2022/07/28 06:02:27;;;;;;;4.22;1.90;;;16.30;72.10;;;;;;604665;238;26615;-67
2022/07/28 06:04:54;;;;;;;3.72;1.50;;;16.30;71.90;;;;;;604738;235;26579;-67
2022/07/28 06:07:21;;;;;;;3.62;1.55;;;16.30;72.20;;;;;;605491;235;27235;-67
2022/07/28 06:09:48;;;;;;;3.53;1.50;;;16.50;71.60;;;;;;606101;234;26553;-67
2022/07/28 06:12:16;;;;;;;2.70;1.73;;;16.50;70.80;;;;;;605131;237;26880;-67
2022/07/28 06:14:43;;;;;;;3.22;1.70;;;16.60;70.20;;;;;;606070;235;26667;-67
2022/07/28 06:17:10;;;;;;;3.30;1.27;;;16.70;70.20;;;;;;605940;235;26995;-67
2022/07/28 06:19:37;;;;;;;4.80;1.67;;;16.80;68.50;;;;;;606767;235;26655;-67
2022/07/28 06:22:05;;;;;;;2.05;1.50;;;16.90;68.80;;;;;;606344;235;26836;-67
2022/07/28 06:24:32;;;;;;;2.47;1.65;;;17.00;67.50;;;;;;604594;235;26633;-67
2022/07/28 06:27:01;;;;;;;5.93;1.67;;;17.10;66.70;;;;;;603467;236;27106;-67
2022/07/28 06:29:27;;;;;;;3.87;1.83;;;17.20;66.10;;;;;;603855;235;26581;-67
2022/07/28 06:31:55;;;;;;;1.40;1.30;;;17.20;66.10;;;;;;603778;238;26602;-67
2022/07/28 06:34:23;;;;;;;2.17;1.30;;;17.60;65.10;;;;;;605200;236;26589;-65
2022/07/28 06:36:51;;;;;;;3.10;1.50;;;17.80;64.50;;;;;;602897;236;26583;-67
2022/07/28 06:39:19;;;;;;;4.95;1.45;;;17.80;63.10;;;;;;604809;238;26639;-66
2022/07/28 06:41:46;;;;;;;3.72;1.25;;;17.80;63.10;;;;;;604259;236;26596;-67
2022/07/28 06:44:13;;;;;;;4.37;1.50;;;17.90;62.70;;;;;;604215;236;26594;-67
2022/07/28 06:46:41;;;;;;;2.05;1.45;;;18.10;60.80;;;;;;607897;235;26990;-67
2022/07/28 06:49:09;;;;;;;3.92;1.60;;;18.20;60.50;;;;;;605728;235;26823;-67
2022/07/28 06:51:36;;;;;;;2.55;1.42;;;18.10;60.40;;;;;;607100;235;26854;-67
2022/07/28 06:54:04;;;;;;;4.18;1.80;;;18.30;59.80;;;;;;605853;235;26603;-67
2022/07/28 06:56:32;;;;;;;2.08;1.40;;;18.60;59.40;;;;;;606196;235;26597;-67
2022/07/28 06:59:00;;;;;;;2.53;1.42;;;18.60;59.40;;;;;;605546;236;26597;-67
2022/07/28 07:01:27;;;;;;;4.45;1.40;;;18.50;58.60;;;;;;604413;236;26822;-67
2022/07/28 07:03:55;;;;;;;4.55;1.17;;;18.40;58.20;;;;;;604133;236;26615;-67
2022/07/28 07:06:21;;;;;;;3.92;1.55;;;18.20;58.30;;;;;;604419;237;26850;-67
2022/07/28 07:08:48;;;;;;;3.90;1.48;;;18.20;58.60;;;;;;605667;236;26610;-67
2022/07/28 07:11:16;;;;;;;5.18;1.60;;;18.20;58.70;;;;;;606903;236;27404;-66
2022/07/28 07:13:44;;;;;;;6.30;1.60;;;18.10;58.20;;;;;;606338;235;26636;-67
2022/07/28 07:16:11;;;;;;;6.80;1.95;;;18.30;58.50;;;;;;603700;236;26585;-67
2022/07/28 07:18:39;;;;;;;2.37;1.62;;;18.30;58.50;;;;;;605745;234;26613;-67
2022/07/28 07:21:07;;;;;;;4.57;2.00;;;18.30;58.10;;;;;;604803;237;26868;-66
2022/07/28 07:23:34;;;;;;;7.80;1.65;;;18.40;57.90;;;;;;605353;237;26653;-67
2022/07/28 07:26:01;;;;;;;9.48;2.53;;;18.50;57.70;;;;;;605614;237;26908;-67
2022/07/28 07:28:28;;;;;;;5.03;1.50;;;18.70;57.50;;;;;;605519;237;26824;-67
2022/07/28 07:30:55;;;;;;;3.45;1.45;;;18.90;56.80;;;;;;605451;238;26862;-67
2022/07/28 07:33:23;;;;;;;4.62;1.65;;;18.80;56.70;;;;;;605473;238;26652;-67
2022/07/28 07:35:50;;;;;;;2.53;1.25;;;19.00;56.70;;;;;;605549;237;26823;-67
2022/07/28 07:38:18;;;;;;;3.30;1.70;;;19.60;56.00;;;;;;605351;237;26550;-67
2022/07/28 07:40:46;;;;;;;6.05;1.55;;;19.80;55.70;;;;;;605369;238;26558;-67
2022/07/28 07:43:13;;;;;;;2.62;1.45;;;19.80;55.70;;;;;;605366;236;26578;-67
2022/07/28 07:45:40;;;;;;;6.12;1.55;;;19.70;54.90;;;;;;605383;238;26550;-67
2022/07/28 07:48:07;;;;;;;3.55;1.30;;;19.80;55.40;;;;;;605419;237;26598;-67
2022/07/28 07:50:35;;;;;;;2.20;1.40;;;19.90;55.20;;;;;;605399;238;26606;-67
2022/07/28 07:53:03;;;;;;;3.67;1.60;;;19.90;54.40;;;;;;605111;238;26594;-67
2022/07/28 07:55:31;;;;;;;4.03;1.55;;;19.90;54.70;;;;;;604855;237;26595;-67
2022/07/28 07:57:59;;;;;;;3.65;1.42;;;19.90;54.70;;;;;;604798;238;26587;-67
2022/07/28 08:00:26;;;;;;;2.87;1.20;;;19.90;54.70;;;;;;604771;238;26591;-67
2022/07/28 08:02:53;;;;;;;3.15;1.35;;;20.00;53.70;;;;;;604761;237;26617;-67
2022/07/28 08:05:20;;;;;;;3.30;1.25;;;20.20;53.60;;;;;;604833;238;26595;-67
2022/07/28 08:07:48;;;;;;;6.07;1.33;;;20.10;53.40;;;;;;604739;237;26843;-67
2022/07/28 08:10:15;;;;;;;2.08;1.20;;;20.20;53.20;;;;;;604741;238;26589;-67
2022/07/28 08:12:42;;;;;;;3.03;1.00;;;20.30;53.00;;;;;;604712;238;26886;-67
2022/07/28 08:15:10;;;;;;;2.17;1.50;;;20.30;52.30;;;;;;604770;238;26586;-67
2022/07/28 08:17:38;;;;;;;2.12;1.12;;;20.30;52.60;;;;;;604808;238;26883;-67
2022/07/28 08:20:07;;;;;;;2.97;1.45;;;20.70;52.20;;;;;;604781;237;26607;-67
2022/07/28 08:22:34;;;;;;;3.53;1.58;;;20.70;52.10;;;;;;605081;238;26587;-67
2022/07/28 08:25:01;;;;;;;1.40;1.30;;;20.70;52.10;;;;;;605081;237;26794;-67
2022/07/28 08:27:28;;;;;;;2.05;1.17;;;21.00;51.80;;;;;;604462;236;26542;-67
2022/07/28 08:29:56;;;;;;;3.00;1.45;;;20.80;51.30;;;;;;603292;236;26883;-66
2022/07/28 08:32:24;;;;;;;2.17;1.20;;;20.80;52.70;;;;;;607674;231;27103;-67
2022/07/28 08:34:53;;;;;;;1.42;1.27;;;21.00;51.40;;;;;;607789;235;26526;-67
2022/07/28 08:37:18;;;;;;;2.70;1.10;;;20.50;49.40;;;;;;605090;235;26549;-67
2022/07/28 08:39:46;;;;;;;1.95;1.17;;;20.30;49.30;;;;;;606366;234;26564;-67
2022/07/28 08:42:15;;;;;;;3.35;1.20;;;20.30;49.60;;;;;;602435;234;26715;-67
2022/07/28 08:44:52;;;;;;;2.00;1.20;;;20.30;49.60;;;;;;604860;235;26610;-67
2022/07/28 08:47:18;;;;;;;2.08;0.98;;;20.60;49.10;;;;;;609448;235;26610;-67
2022/07/28 08:49:46;;;;;;;2.83;1.15;;;20.90;49.30;;;;;;603237;238;26591;-67
2022/07/28 08:52:13;;;;;;;2.70;1.37;;;20.80;49.30;;;;;;610997;235;26689;-67
2022/07/28 08:54:40;;;;;;;3.33;0.90;;;21.10;49.60;;;;;;602577;238;26611;-67
2022/07/28 08:57:08;;;;;;;1.08;0.90;;;21.10;49.80;;;;;;604854;234;26815;-68
2022/07/28 08:59:35;;;;;;;1.67;0.98;;;21.30;50.40;;;;;;602024;234;26586;-67
2022/07/28 09:02:03;;;;;;;2.45;1.12;;;21.80;49.00;;;;;;605301;235;26798;-67
2022/07/28 09:04:35;;;;;;;2.20;1.27;;;21.70;48.20;;;;;;604135;235;26597;-68
2022/07/28 09:07:00;;;;;;;1.27;0.95;;;21.40;47.90;;;;;;604394;236;26599;-67
2022/07/28 09:09:28;;;;;;;5.07;1.10;;;21.10;48.00;;;;;;604604;237;26551;-67
2022/07/28 09:11:56;;;;;;;1.15;1.05;;;21.10;47.90;;;;;;604730;238;26979;-67
2022/07/28 09:14:23;;;;;;;2.55;1.10;;;20.80;47.70;;;;;;604686;237;26590;-68
2022/07/28 09:16:51;;;;;;;1.73;1.12;;;21.40;48.30;;;;;;604801;237;27223;-68
2022/07/28 09:19:19;;;;;;;1.85;1.08;;;21.40;48.50;;;;;;604726;237;26859;-68
2022/07/28 09:21:46;;;;;;;1.62;0.90;;;21.40;48.20;;;;;;604683;237;26582;-67
2022/07/28 09:24:28;;;;;;;4.90;1.15;;;21.70;47.80;;;;;;604819;237;27127;-67
2022/07/28 09:27:02;;;;;;;1.55;0.80;;;21.90;47.90;;;;;;603444;238;26601;-68
2022/07/28 09:29:29;;;;;;;2.40;1.17;;;22.10;47.70;;;;;;604712;238;26591;-68
2022/07/28 09:31:56;;;;;;;1.70;0.75;;;22.50;47.60;;;;;;604684;238;26586;-68
2022/07/28 09:34:23;;;;;;;1.52;0.80;;;22.70;47.10;;;;;;604731;238;26852;-68
2022/07/28 09:36:51;;;;;;;1.87;1.08;;;22.60;46.90;;;;;;604709;237;26582;-68
2022/07/28 09:39:29;;;;;;;0.80;0.80;;;22.80;46.90;;;;;;604592;238;26811;-68
2022/07/28 09:41:57;;;;;;;2.78;1.30;;;23.00;45.80;;;;;;605436;235;26585;-68
2022/07/28 09:44:25;;;;;;;1.95;1.05;;;22.50;46.30;;;;;;606092;236;26624;-68
2022/07/28 09:46:52;;;;;;;1.23;1.08;;;22.30;46.50;;;;;;605322;234;26601;-67
2022/07/28 09:49:20;;;;;;;46.60;8.82;;;22.30;46.50;;;;;;602874;237;26564;-69
2022/07/28 09:51:58;;;;;;;77.20;14.70;;;22.20;46.50;;;;;;602661;239;26844;-68
2022/07/28 09:54:26;;;;;;;69.60;14.90;;;21.70;46.90;;;;;;606186;235;26592;-67
2022/07/28 09:56:53;;;;;;;69.20;14.27;;;21.70;46.90;;;;;;610505;235;26617;-67
2022/07/28 09:59:21;;;;;;;57.72;11.27;;;21.30;46.70;;;;;;610544;231;26795;-68
2022/07/28 10:01:52;;;;;;;50.42;9.55;;;21.40;47.50;;;;;;610313;236;26600;-67
2022/07/28 10:04:30;;;;;;;45.92;9.65;;;21.40;47.50;;;;;;609910;236;26636;-68
2022/07/28 10:07:04;;;;;;;45.38;8.70;;;21.40;47.20;;;;;;609535;236;26624;-68
2022/07/28 10:09:31;;;;;;;40.60;8.85;;;21.50;47.60;;;;;;609546;236;26590;-68
2022/07/28 10:12:25;;;;;;;35.88;6.68;;;21.20;47.10;;;;;;607835;234;26596;-68
2022/07/28 10:14:52;;;;;;;25.77;5.78;;;21.20;47.10;;;;;;603402;235;26822;-68
2022/07/28 10:17:28;;;;;;;14.30;3.10;;;21.20;47.90;;;;;;602874;235;26582;-69
2022/07/28 10:19:57;;;;;;;4.82;2.28;;;21.20;47.50;;;;;;603957;236;26597;-69
2022/07/28 10:22:24;;;;;;;8.93;2.25;;;21.50;47.60;;;;;;609879;235;26659;-69
2022/07/28 10:24:52;;;;;;;4.97;1.67;;;21.70;47.00;;;;;;603184;236;26964;-69
2022/07/28 10:27:23;;;;;;;8.60;1.70;;;21.70;47.20;;;;;;604044;237;26594;-68
2022/07/28 10:29:50;;;;;;;6.82;1.62;;;21.80;47.10;;;;;;605303;236;27238;-68
2022/07/28 10:32:17;;;;;;;4.90;1.60;;;22.00;46.90;;;;;;603460;236;26590;-68
2022/07/28 10:34:45;;;;;;;1.75;0.95;;;22.10;46.40;;;;;;603029;236;26792;-68
2022/07/28 10:37:13;;;;;;;5.78;1.85;;;22.00;46.20;;;;;;601618;238;26586;-68
2022/07/28 10:39:41;;;;;;;8.57;2.00;;;22.30;46.30;;;;;;606066;235;26645;-69
2022/07/28 10:42:10;;;;;;;3.83;1.42;;;22.20;46.00;;;;;;610721;235;27330;-68
2022/07/28 10:44:38;;;;;;;8.48;1.67;;;22.30;46.10;;;;;;605536;236;26610;-69
2022/07/28 10:47:08;;;;;;;4.12;1.60;;;22.20;46.00;;;;;;603719;238;26621;-69
2022/07/28 10:49:35;;;;;;;1.17;1.08;;;22.10;45.00;;;;;;603681;232;26931;-70
2022/07/28 10:52:03;;;;;;;5.28;1.23;;;22.20;45.70;;;;;;604854;236;26629;-70
2022/07/28 10:54:31;;;;;;;3.70;1.52;;;22.20;45.60;;;;;;603010;237;26559;-67
2022/07/28 10:56:57;;;;;;;3.90;1.60;;;22.30;45.00;;;;;;603062;237;27279;-68
2022/07/28 10:59:50;;;;;;;2.03;1.30;;;22.30;45.20;;;;;;604955;234;26583;-68
2022/07/28 11:02:29;;;;;;;5.05;1.40;;;21.90;44.90;;;;;;606867;234;26687;-69
2022/07/28 11:05:00;;;;;;;4.95;1.50;;;22.10;45.30;;;;;;605084;235;26628;-69
2022/07/28 11:07:24;;;;;;;3.33;1.60;;;22.20;44.60;;;;;;606076;235;26668;-69
2022/07/28 11:09:53;;;;;;;2.30;1.40;;;21.90;44.50;;;;;;602357;235;26672;-72
2022/07/28 11:12:20;;;;;;;4.70;1.40;;;21.90;44.50;;;;;;603405;235;26617;-68
2022/07/28 11:14:47;;;;;;;3.22;1.45;;;21.90;44.50;;;;;;609947;234;26673;-68
2022/07/28 11:17:14;;;;;;;1.48;1.30;;;21.70;43.90;;;;;;604998;235;26582;-68
2022/07/28 11:19:51;;;;;;;8.20;1.40;;;22.00;44.50;;;;;;603632;237;27296;-68
2022/07/28 11:22:20;;;;;;;3.00;1.58;;;22.00;44.30;;;;;;601838;239;26853;-68
2022/07/28 11:25:11;;;;;;;7.93;2.45;;;22.00;44.50;;;;;;604632;238;26781;-66
2022/07/28 11:27:58;;;;;;;5.40;1.83;;;22.30;44.90;;;;;;604888;237;26581;-67
2022/07/28 11:30:50;;;;;;;7.10;2.60;;;22.30;44.80;;;;;;601481;237;26604;-69
2022/07/28 11:33:19;;;;;;;2.05;0.80;;;22.30;44.80;;;;;;603198;238;26622;-69
2022/07/28 11:35:53;;;;;;;3.47;1.40;;;22.30;43.80;;;;;;602912;238;26594;-69
2022/07/28 11:38:21;;;;;;;8.68;2.45;;;22.50;43.70;;;;;;602498;238;27263;-68
2022/07/28 11:40:50;;;;;;;6.37;1.87;;;22.70;43.60;;;;;;601563;236;26609;-65
2022/07/28 11:43:29;;;;;;;6.60;2.12;;;22.80;43.70;;;;;;602302;238;26606;-66
2022/07/28 11:46:22;;;;;;;4.20;1.75;;;22.80;43.80;;;;;;603369;238;26590;-66
2022/07/28 11:48:51;;;;;;;9.88;3.45;;;23.00;43.80;;;;;;601874;238;26569;-65
2022/07/28 11:51:17;;;;;;;15.00;3.90;;;23.10;42.60;;;;;;600895;238;26829;-68
2022/07/28 11:53:46;;;;;;;11.00;3.08;;;23.10;42.10;;;;;;602579;238;26617;-66
2022/07/28 11:56:16;;;;;;;8.35;2.72;;;23.00;41.80;;;;;;603709;238;26829;-67
2022/07/28 11:58:44;;;;;;;7.20;2.67;;;23.30;41.80;;;;;;607415;235;26594;-66
2022/07/28 12:01:13;;;;;;;8.95;2.55;;;23.30;41.80;;;;;;602345;237;26647;-66
2022/07/28 12:03:42;;;;;;;3.65;2.00;;;23.70;41.80;;;;;;604716;237;26634;-64
2022/07/28 12:06:10;;;;;;;5.85;2.15;;;23.70;41.80;;;;;;604208;235;26580;-68
2022/07/28 12:08:52;;;;;;;9.63;2.53;;;23.90;41.60;;;;;;602897;232;26622;-68
2022/07/28 12:11:19;;;;;;;5.68;1.83;;;23.90;41.50;;;;;;604697;237;27415;-67
2022/07/28 12:13:46;;;;;;;5.80;2.10;;;23.70;42.00;;;;;;603949;237;26598;-69
2022/07/28 12:16:13;;;;;;;6.47;2.25;;;23.60;41.80;;;;;;605299;237;26634;-67
2022/07/28 12:18:41;;;;;;;2.97;1.50;;;23.30;42.20;;;;;;605151;234;26615;-69
2022/07/28 12:21:09;;;;;;;3.25;1.67;;;23.10;42.10;;;;;;602805;235;26634;-69
2022/07/28 12:23:37;;;;;;;4.05;1.50;;;23.30;42.10;;;;;;603746;235;26645;-66
2022/07/28 12:26:05;;;;;;;3.05;1.37;;;23.60;42.90;;;;;;606931;236;26589;-66
2022/07/28 12:28:33;;;;;;;3.47;1.37;;;24.20;42.10;;;;;;603428;236;26825;-68
2022/07/28 12:31:10;;;;;;;5.50;1.67;;;24.10;41.70;;;;;;601832;238;26822;-68
2022/07/28 12:33:37;;;;;;;2.72;1.60;;;24.90;40.80;;;;;;603142;235;26610;-68
2022/07/28 12:36:05;;;;;;;5.68;1.35;;;24.90;40.80;;;;;;608161;232;26666;-67
2022/07/28 12:38:32;;;;;;;7.55;1.90;;;25.10;40.10;;;;;;606424;236;26643;-69
2022/07/28 12:41:01;;;;;;;7.70;2.25;;;25.60;40.30;;;;;;605213;236;26574;-68
2022/07/28 12:43:29;;;;;;;9.15;3.17;;;25.90;40.40;;;;;;606955;233;26576;-70
2022/07/28 12:45:56;;;;;;;3.15;1.87;;;25.90;40.50;;;;;;611765;235;26548;-71
2022/07/28 12:48:24;;;;;;;5.85;2.33;;;25.90;41.10;;;;;;607126;235;26550;-70
2022/07/28 12:50:51;;;;;;;3.20;1.62;;;25.90;41.10;;;;;;604749;236;26547;-71
2022/07/28 12:53:21;;;;;;;3.33;1.55;;;25.90;40.90;;;;;;602981;235;26591;-70
2022/07/28 12:55:45;;;;;;;5.45;2.10;;;26.00;41.30;;;;;;601846;238;26757;-69